sensor_id;sensor_type;location;lat;lon;timestamp;temperature;humidity
53776;DHT22;44276;49.534;6.378;2023-09-19T00:01:44;16.10;99.90
53776;DHT22;44276;49.534;6.378;2023-09-19T00:04:14;16.10;99.90
53776;DHT22;44276;49.534;6.378;2023-09-19T00:06:42;16.20;99.90
53776;DHT22;44276;49.534;6.378;2023-09-19T00:09:10;16.30;99.90
53776;DHT22;44276;49.534;6.378;2023-09-19T00:11:39;16.40;99.90
53776;DHT22;44276;49.534;6.378;2023-09-19T00:14:08;16.40;99.90
53776;DHT22;44276;49.534;6.378;2023-09-19T00:16:36;16.40;99.90
53776;DHT22;44276;49.534;6.378;2023-09-19T00:19:04;16.50;99.90
53776;DHT22;44276;49.534;6.378;2023-09-19T00:21:37;16.70;99.90
53776;DHT22;44276;49.534;6.378;2023-09-19T00:24:05;16.70;99.90
53776;DHT22;44276;49.534;6.378;2023-09-19T00:26:35;16.70;99.90
53776;DHT22;44276;49.534;6.378;2023-09-19T00:29:05;16.50;99.90
53776;DHT22;44276;49.534;6.378;2023-09-19T00:31:35;16.40;99.90
53776;DHT22;44276;49.534;6.378;2023-09-19T00:34:04;16.30;99.90
53776;DHT22;44276;49.534;6.378;2023-09-19T00:36:33;16.20;99.90
53776;DHT22;44276;49.534;6.378;2023-09-19T00:39:02;16.20;99.90
53776;DHT22;44276;49.534;6.378;2023-09-19T00:41:32;16.20;99.90
53776;DHT22;44276;49.534;6.378;2023-09-19T00:44:02;16.20;99.90
53776;DHT22;44276;49.534;6.378;2023-09-19T00:46:31;16.20;99.90
53776;DHT22;44276;49.534;6.378;2023-09-19T00:49:00;16.30;99.90
53776;DHT22;44276;49.534;6.378;2023-09-19T00:51:29;16.30;99.90
53776;DHT22;44276;49.534;6.378;2023-09-19T00:53:59;16.20;99.90
53776;DHT22;44276;49.534;6.378;2023-09-19T00:56:28;16.10;99.90
53776;DHT22;44276;49.534;6.378;2023-09-19T00:58:57;15.90;99.90
53776;DHT22;44276;49.534;6.378;2023-09-19T01:01:25;15.80;99.90
53776;DHT22;44276;49.534;6.378;2023-09-19T01:03:53;15.80;99.90
53776;DHT22;44276;49.534;6.378;2023-09-19T01:06:22;15.80;99.90
53776;DHT22;44276;49.534;6.378;2023-09-19T01:08:50;15.80;99.90
53776;DHT22;44276;49.534;6.378;2023-09-19T01:11:26;15.70;99.90
53776;DHT22;44276;49.534;6.378;2023-09-19T01:14:13;15.70;99.90
53776;DHT22;44276;49.534;6.378;2023-09-19T01:16:53;15.60;99.90
53776;DHT22;44276;49.534;6.378;2023-09-19T01:22:53;15.40;99.90
53776;DHT22;44276;49.534;6.378;2023-09-19T01:26:05;15.40;99.90
53776;DHT22;44276;49.534;6.378;2023-09-19T01:28:48;15.50;99.90
53776;DHT22;44276;49.534;6.378;2023-09-19T01:31:24;15.50;99.90
53776;DHT22;44276;49.534;6.378;2023-09-19T01:33:58;15.50;99.90
53776;DHT22;44276;49.534;6.378;2023-09-19T01:36:29;15.50;99.90
53776;DHT22;44276;49.534;6.378;2023-09-19T01:39:02;15.40;99.90
53776;DHT22;44276;49.534;6.378;2023-09-19T01:41:58;15.50;99.90
53776;DHT22;44276;49.534;6.378;2023-09-19T01:44:40;15.60;99.90
53776;DHT22;44276;49.534;6.378;2023-09-19T01:47:28;15.80;99.90
53776;DHT22;44276;49.534;6.378;2023-09-19T01:50:11;15.90;99.90
53776;DHT22;44276;49.534;6.378;2023-09-19T01:52:49;15.90;99.90
53776;DHT22;44276;49.534;6.378;2023-09-19T01:55:26;15.90;99.90
53776;DHT22;44276;49.534;6.378;2023-09-19T01:58:04;15.90;99.90
53776;DHT22;44276;49.534;6.378;2023-09-19T02:00:37;16.00;99.90
53776;DHT22;44276;49.534;6.378;2023-09-19T02:03:11;16.00;99.90
53776;DHT22;44276;49.534;6.378;2023-09-19T02:05:40;16.00;99.90
53776;DHT22;44276;49.534;6.378;2023-09-19T02:08:09;16.00;99.90
53776;DHT22;44276;49.534;6.378;2023-09-19T02:10:37;15.90;99.90
53776;DHT22;44276;49.534;6.378;2023-09-19T02:13:08;15.80;99.90
53776;DHT22;44276;49.534;6.378;2023-09-19T02:15:36;15.70;99.90
53776;DHT22;44276;49.534;6.378;2023-09-19T02:18:05;15.60;99.90
53776;DHT22;44276;49.534;6.378;2023-09-19T02:20:35;15.60;99.90
53776;DHT22;44276;49.534;6.378;2023-09-19T02:23:04;15.70;99.90
53776;DHT22;44276;49.534;6.378;2023-09-19T02:25:32;15.70;99.90
53776;DHT22;44276;49.534;6.378;2023-09-19T02:28:02;15.80;99.90
53776;DHT22;44276;49.534;6.378;2023-09-19T02:30:30;15.70;99.90
53776;DHT22;44276;49.534;6.378;2023-09-19T02:32:59;15.70;99.90
53776;DHT22;44276;49.534;6.378;2023-09-19T02:35:29;15.60;99.90
53776;DHT22;44276;49.534;6.378;2023-09-19T02:38:03;15.50;99.90
53776;DHT22;44276;49.534;6.378;2023-09-19T02:40:33;15.50;99.90
53776;DHT22;44276;49.534;6.378;2023-09-19T02:43:03;15.50;99.90
53776;DHT22;44276;49.534;6.378;2023-09-19T02:45:32;15.60;99.90
53776;DHT22;44276;49.534;6.378;2023-09-19T02:48:00;15.50;99.90
53776;DHT22;44276;49.534;6.378;2023-09-19T02:50:29;15.50;99.90
53776;DHT22;44276;49.534;6.378;2023-09-19T02:52:58;15.60;99.90
53776;DHT22;44276;49.534;6.378;2023-09-19T02:55:27;15.60;99.90
53776;DHT22;44276;49.534;6.378;2023-09-19T02:57:55;15.50;99.90
53776;DHT22;44276;49.534;6.378;2023-09-19T03:00:24;15.40;99.90
53776;DHT22;44276;49.534;6.378;2023-09-19T03:02:54;15.30;99.90
53776;DHT22;44276;49.534;6.378;2023-09-19T03:05:23;15.20;99.90
53776;DHT22;44276;49.534;6.378;2023-09-19T03:07:53;15.20;99.90
53776;DHT22;44276;49.534;6.378;2023-09-19T03:10:22;15.10;99.90
53776;DHT22;44276;49.534;6.378;2023-09-19T03:12:53;15.10;99.90
53776;DHT22;44276;49.534;6.378;2023-09-19T03:15:21;15.10;99.90
53776;DHT22;44276;49.534;6.378;2023-09-19T03:17:50;15.00;99.90
53776;DHT22;44276;49.534;6.378;2023-09-19T03:20:19;14.90;99.90
53776;DHT22;44276;49.534;6.378;2023-09-19T03:22:47;14.90;99.90
53776;DHT22;44276;49.534;6.378;2023-09-19T03:25:16;14.90;99.90
53776;DHT22;44276;49.534;6.378;2023-09-19T03:27:46;15.00;99.90
53776;DHT22;44276;49.534;6.378;2023-09-19T03:30:15;15.10;99.90
53776;DHT22;44276;49.534;6.378;2023-09-19T03:32:44;15.20;99.90
53776;DHT22;44276;49.534;6.378;2023-09-19T03:35:14;15.20;99.90
53776;DHT22;44276;49.534;6.378;2023-09-19T03:37:43;15.20;99.90
53776;DHT22;44276;49.534;6.378;2023-09-19T03:40:12;15.30;99.90
53776;DHT22;44276;49.534;6.378;2023-09-19T03:42:41;15.30;99.90
53776;DHT22;44276;49.534;6.378;2023-09-19T03:45:10;15.20;99.90
53776;DHT22;44276;49.534;6.378;2023-09-19T03:47:41;15.10;99.90
53776;DHT22;44276;49.534;6.378;2023-09-19T03:50:09;15.10;99.90
53776;DHT22;44276;49.534;6.378;2023-09-19T03:52:38;15.00;99.90
53776;DHT22;44276;49.534;6.378;2023-09-19T03:55:07;14.90;99.90
53776;DHT22;44276;49.534;6.378;2023-09-19T03:57:37;14.80;99.90
53776;DHT22;44276;49.534;6.378;2023-09-19T04:00:06;14.80;99.90
53776;DHT22;44276;49.534;6.378;2023-09-19T04:02:44;14.80;99.90
53776;DHT22;44276;49.534;6.378;2023-09-19T04:05:13;14.70;99.90
53776;DHT22;44276;49.534;6.378;2023-09-19T04:07:41;14.70;99.90
53776;DHT22;44276;49.534;6.378;2023-09-19T04:10:10;14.60;99.90
53776;DHT22;44276;49.534;6.378;2023-09-19T04:12:39;14.60;99.90
53776;DHT22;44276;49.534;6.378;2023-09-19T04:15:07;14.50;99.90
53776;DHT22;44276;49.534;6.378;2023-09-19T04:17:40;14.50;99.90
53776;DHT22;44276;49.534;6.378;2023-09-19T04:20:10;14.70;99.90
53776;DHT22;44276;49.534;6.378;2023-09-19T04:22:39;14.70;99.90
53776;DHT22;44276;49.534;6.378;2023-09-19T04:25:07;14.80;99.90
53776;DHT22;44276;49.534;6.378;2023-09-19T04:27:36;14.70;99.90
53776;DHT22;44276;49.534;6.378;2023-09-19T04:30:06;14.70;99.90
53776;DHT22;44276;49.534;6.378;2023-09-19T04:32:38;14.60;99.90
53776;DHT22;44276;49.534;6.378;2023-09-19T04:35:07;14.60;99.90
53776;DHT22;44276;49.534;6.378;2023-09-19T04:37:39;14.50;99.90
53776;DHT22;44276;49.534;6.378;2023-09-19T04:40:09;14.40;99.90
53776;DHT22;44276;49.534;6.378;2023-09-19T04:42:40;14.40;99.90
53776;DHT22;44276;49.534;6.378;2023-09-19T04:45:10;14.30;99.90
53776;DHT22;44276;49.534;6.378;2023-09-19T04:47:38;14.30;99.90
53776;DHT22;44276;49.534;6.378;2023-09-19T04:50:10;14.20;99.90
53776;DHT22;44276;49.534;6.378;2023-09-19T04:52:41;14.20;99.90
53776;DHT22;44276;49.534;6.378;2023-09-19T04:55:11;14.10;99.90
53776;DHT22;44276;49.534;6.378;2023-09-19T04:57:43;14.00;99.90
53776;DHT22;44276;49.534;6.378;2023-09-19T05:00:13;13.90;99.90
53776;DHT22;44276;49.534;6.378;2023-09-19T05:02:43;13.90;99.90
53776;DHT22;44276;49.534;6.378;2023-09-19T05:05:13;13.90;99.90
53776;DHT22;44276;49.534;6.378;2023-09-19T05:07:44;13.90;99.90
53776;DHT22;44276;49.534;6.378;2023-09-19T05:10:12;13.90;99.90
53776;DHT22;44276;49.534;6.378;2023-09-19T05:12:41;14.00;99.90
53776;DHT22;44276;49.534;6.378;2023-09-19T05:15:12;14.00;99.90
53776;DHT22;44276;49.534;6.378;2023-09-19T05:17:41;14.00;99.90
53776;DHT22;44276;49.534;6.378;2023-09-19T05:20:10;14.00;99.90
53776;DHT22;44276;49.534;6.378;2023-09-19T05:22:42;14.10;99.90
53776;DHT22;44276;49.534;6.378;2023-09-19T05:25:13;14.10;99.90
53776;DHT22;44276;49.534;6.378;2023-09-19T05:27:42;14.20;99.90
53776;DHT22;44276;49.534;6.378;2023-09-19T05:30:11;14.10;99.90
53776;DHT22;44276;49.534;6.378;2023-09-19T05:32:42;14.00;99.90
53776;DHT22;44276;49.534;6.378;2023-09-19T05:35:10;14.00;99.90
53776;DHT22;44276;49.534;6.378;2023-09-19T05:37:40;13.90;99.90
53776;DHT22;44276;49.534;6.378;2023-09-19T05:40:09;14.00;99.90
53776;DHT22;44276;49.534;6.378;2023-09-19T05:42:38;14.10;99.90
53776;DHT22;44276;49.534;6.378;2023-09-19T05:45:08;14.10;99.90
53776;DHT22;44276;49.534;6.378;2023-09-19T05:47:39;14.00;99.90
53776;DHT22;44276;49.534;6.378;2023-09-19T05:50:13;14.00;99.90
53776;DHT22;44276;49.534;6.378;2023-09-19T05:52:41;14.00;99.90
53776;DHT22;44276;49.534;6.378;2023-09-19T05:55:10;14.00;99.90
53776;DHT22;44276;49.534;6.378;2023-09-19T05:57:39;14.10;99.90
53776;DHT22;44276;49.534;6.378;2023-09-19T06:00:10;14.10;99.90
53776;DHT22;44276;49.534;6.378;2023-09-19T06:02:39;14.10;99.90
53776;DHT22;44276;49.534;6.378;2023-09-19T06:05:08;14.20;99.90
53776;DHT22;44276;49.534;6.378;2023-09-19T06:07:39;14.20;99.90
53776;DHT22;44276;49.534;6.378;2023-09-19T06:10:08;14.30;99.90
53776;DHT22;44276;49.534;6.378;2023-09-19T06:12:38;14.40;99.90
53776;DHT22;44276;49.534;6.378;2023-09-19T06:15:07;14.40;99.90
53776;DHT22;44276;49.534;6.378;2023-09-19T06:17:39;14.50;99.90
53776;DHT22;44276;49.534;6.378;2023-09-19T06:20:08;14.60;99.90
53776;DHT22;44276;49.534;6.378;2023-09-19T06:22:43;14.60;99.90
53776;DHT22;44276;49.534;6.378;2023-09-19T06:25:14;14.70;99.90
53776;DHT22;44276;49.534;6.378;2023-09-19T06:27:47;14.80;99.90
53776;DHT22;44276;49.534;6.378;2023-09-19T06:30:15;15.00;99.90
53776;DHT22;44276;49.534;6.378;2023-09-19T06:32:44;15.00;99.90
53776;DHT22;44276;49.534;6.378;2023-09-19T06:35:13;15.10;99.90
53776;DHT22;44276;49.534;6.378;2023-09-19T06:37:44;15.20;99.90
53776;DHT22;44276;49.534;6.378;2023-09-19T06:40:13;15.20;99.90
53776;DHT22;44276;49.534;6.378;2023-09-19T06:42:44;15.20;99.90
53776;DHT22;44276;49.534;6.378;2023-09-19T06:45:15;15.20;99.90
53776;DHT22;44276;49.534;6.378;2023-09-19T06:47:46;15.20;99.90
53776;DHT22;44276;49.534;6.378;2023-09-19T06:50:17;15.20;99.90
53776;DHT22;44276;49.534;6.378;2023-09-19T06:52:48;15.20;99.90
53776;DHT22;44276;49.534;6.378;2023-09-19T06:55:19;15.30;99.90
53776;DHT22;44276;49.534;6.378;2023-09-19T06:57:48;15.40;99.90
53776;DHT22;44276;49.534;6.378;2023-09-19T07:00:17;15.60;99.90
53776;DHT22;44276;49.534;6.378;2023-09-19T07:02:55;15.70;99.90
53776;DHT22;44276;49.534;6.378;2023-09-19T07:05:25;16.00;99.90
53776;DHT22;44276;49.534;6.378;2023-09-19T07:07:56;16.20;99.90
53776;DHT22;44276;49.534;6.378;2023-09-19T07:10:26;16.40;98.60
53776;DHT22;44276;49.534;6.378;2023-09-19T07:12:56;16.60;95.30
53776;DHT22;44276;49.534;6.378;2023-09-19T07:15:25;16.90;89.20
53776;DHT22;44276;49.534;6.378;2023-09-19T07:17:54;16.90;83.90
53776;DHT22;44276;49.534;6.378;2023-09-19T07:20:24;17.20;81.80
53776;DHT22;44276;49.534;6.378;2023-09-19T07:22:57;17.30;70.60
53776;DHT22;44276;49.534;6.378;2023-09-19T07:25:27;17.50;71.10
53776;DHT22;44276;49.534;6.378;2023-09-19T07:27:55;17.60;67.20
53776;DHT22;44276;49.534;6.378;2023-09-19T07:30:27;17.40;66.10
53776;DHT22;44276;49.534;6.378;2023-09-19T07:32:56;17.30;65.00
53776;DHT22;44276;49.534;6.378;2023-09-19T07:35:25;17.20;65.30
53776;DHT22;44276;49.534;6.378;2023-09-19T07:37:53;17.00;66.20
53776;DHT22;44276;49.534;6.378;2023-09-19T07:40:27;16.90;66.10
53776;DHT22;44276;49.534;6.378;2023-09-19T07:42:56;17.20;68.50
53776;DHT22;44276;49.534;6.378;2023-09-19T07:45:28;17.30;60.30
53776;DHT22;44276;49.534;6.378;2023-09-19T07:47:57;17.50;61.30
53776;DHT22;44276;49.534;6.378;2023-09-19T07:50:27;17.30;61.30
53776;DHT22;44276;49.534;6.378;2023-09-19T07:52:55;17.50;58.60
53776;DHT22;44276;49.534;6.378;2023-09-19T07:55:24;17.90;59.60
53776;DHT22;44276;49.534;6.378;2023-09-19T07:57:54;18.40;51.60
53776;DHT22;44276;49.534;6.378;2023-09-19T08:00:22;18.70;49.20
53776;DHT22;44276;49.534;6.378;2023-09-19T08:02:50;19.10;47.90
53776;DHT22;44276;49.534;6.378;2023-09-19T08:05:27;19.40;41.10
53776;DHT22;44276;49.534;6.378;2023-09-19T08:07:55;19.90;42.20
53776;DHT22;44276;49.534;6.378;2023-09-19T08:10:25;20.30;39.00
53776;DHT22;44276;49.534;6.378;2023-09-19T08:12:56;20.50;36.30
53776;DHT22;44276;49.534;6.378;2023-09-19T08:15:26;20.40;34.30
53776;DHT22;44276;49.534;6.378;2023-09-19T08:17:54;20.30;35.00
53776;DHT22;44276;49.534;6.378;2023-09-19T08:20:22;20.30;34.90
53776;DHT22;44276;49.534;6.378;2023-09-19T08:22:52;19.80;36.00
53776;DHT22;44276;49.534;6.378;2023-09-19T08:25:22;19.50;37.00
53776;DHT22;44276;49.534;6.378;2023-09-19T08:27:52;19.50;36.70
53776;DHT22;44276;49.534;6.378;2023-09-19T08:30:22;19.50;36.80
53776;DHT22;44276;49.534;6.378;2023-09-19T08:32:57;19.80;37.80
53776;DHT22;44276;49.534;6.378;2023-09-19T08:35:26;19.80;36.40
53776;DHT22;44276;49.534;6.378;2023-09-19T08:37:55;19.90;35.20
53776;DHT22;44276;49.534;6.378;2023-09-19T08:40:24;20.20;36.00
53776;DHT22;44276;49.534;6.378;2023-09-19T08:42:57;20.30;32.20
53776;DHT22;44276;49.534;6.378;2023-09-19T08:45:27;19.90;33.90
53776;DHT22;44276;49.534;6.378;2023-09-19T08:48:02;20.00;31.60
53776;DHT22;44276;49.534;6.378;2023-09-19T08:50:47;19.90;32.90
53776;DHT22;44276;49.534;6.378;2023-09-19T08:53:21;20.50;33.80
53776;DHT22;44276;49.534;6.378;2023-09-19T08:55:56;20.80;31.70
53776;DHT22;44276;49.534;6.378;2023-09-19T08:58:29;20.80;30.90
53776;DHT22;44276;49.534;6.378;2023-09-19T09:01:05;20.60;32.00
53776;DHT22;44276;49.534;6.378;2023-09-19T09:03:34;21.00;31.40
53776;DHT22;44276;49.534;6.378;2023-09-19T09:06:03;21.60;29.40
53776;DHT22;44276;49.534;6.378;2023-09-19T09:08:32;21.80;28.70
53776;DHT22;44276;49.534;6.378;2023-09-19T09:11:02;22.50;27.70
53776;DHT22;44276;49.534;6.378;2023-09-19T09:13:35;22.80;26.80
53776;DHT22;44276;49.534;6.378;2023-09-19T09:16:06;22.50;27.00
53776;DHT22;44276;49.534;6.378;2023-09-19T09:18:34;22.10;27.00
53776;DHT22;44276;49.534;6.378;2023-09-19T09:21:02;21.30;26.60
53776;DHT22;44276;49.534;6.378;2023-09-19T09:23:32;20.50;28.80
53776;DHT22;44276;49.534;6.378;2023-09-19T09:26:00;20.80;27.60
53776;DHT22;44276;49.534;6.378;2023-09-19T09:28:33;19.90;29.30
53776;DHT22;44276;49.534;6.378;2023-09-19T09:31:22;19.50;30.10
53776;DHT22;44276;49.534;6.378;2023-09-19T09:33:54;20.20;30.10
53776;DHT22;44276;49.534;6.378;2023-09-19T09:36:34;20.90;28.70
53776;DHT22;44276;49.534;6.378;2023-09-19T09:39:04;21.80;25.90
53776;DHT22;44276;49.534;6.378;2023-09-19T09:41:45;21.90;27.00
53776;DHT22;44276;49.534;6.378;2023-09-19T09:44:14;21.90;25.10
53776;DHT22;44276;49.534;6.378;2023-09-19T09:46:47;21.40;26.20
53776;DHT22;44276;49.534;6.378;2023-09-19T09:49:47;21.40;25.80
53776;DHT22;44276;49.534;6.378;2023-09-19T09:52:21;22.40;25.30
53776;DHT22;44276;49.534;6.378;2023-09-19T09:55:02;22.20;23.80
53776;DHT22;44276;49.534;6.378;2023-09-19T09:57:33;20.70;26.50
53776;DHT22;44276;49.534;6.378;2023-09-19T10:00:03;20.70;27.70
53776;DHT22;44276;49.534;6.378;2023-09-19T10:02:48;21.40;26.30
53776;DHT22;44276;49.534;6.378;2023-09-19T10:05:17;20.80;26.50
53776;DHT22;44276;49.534;6.378;2023-09-19T10:07:55;21.10;27.70
53776;DHT22;44276;49.534;6.378;2023-09-19T10:10:31;21.80;26.00
53776;DHT22;44276;49.534;6.378;2023-09-19T10:13:12;21.80;24.60
53776;DHT22;44276;49.534;6.378;2023-09-19T10:15:49;21.10;27.70
53776;DHT22;44276;49.534;6.378;2023-09-19T10:18:22;20.80;26.90
53776;DHT22;44276;49.534;6.378;2023-09-19T10:20:52;20.60;26.40
53776;DHT22;44276;49.534;6.378;2023-09-19T10:23:22;20.00;26.70
53776;DHT22;44276;49.534;6.378;2023-09-19T10:25:53;20.20;27.30
53776;DHT22;44276;49.534;6.378;2023-09-19T10:28:22;20.40;27.90
53776;DHT22;44276;49.534;6.378;2023-09-19T10:30:51;20.90;27.20
53776;DHT22;44276;49.534;6.378;2023-09-19T10:33:24;21.70;27.00
53776;DHT22;44276;49.534;6.378;2023-09-19T10:35:54;22.20;25.70
53776;DHT22;44276;49.534;6.378;2023-09-19T10:38:28;22.30;24.60
53776;DHT22;44276;49.534;6.378;2023-09-19T10:40:57;21.60;25.00
53776;DHT22;44276;49.534;6.378;2023-09-19T10:43:30;21.60;24.50
53776;DHT22;44276;49.534;6.378;2023-09-19T10:46:05;21.90;25.00
53776;DHT22;44276;49.534;6.378;2023-09-19T10:48:39;22.30;24.10
53776;DHT22;44276;49.534;6.378;2023-09-19T10:51:14;23.20;23.50
53776;DHT22;44276;49.534;6.378;2023-09-19T10:53:49;23.80;20.80
53776;DHT22;44276;49.534;6.378;2023-09-19T10:56:24;23.80;21.80
53776;DHT22;44276;49.534;6.378;2023-09-19T10:59:06;23.70;21.40
53776;DHT22;44276;49.534;6.378;2023-09-19T11:01:43;23.70;22.00
53776;DHT22;44276;49.534;6.378;2023-09-19T11:04:27;23.60;21.30
53776;DHT22;44276;49.534;6.378;2023-09-19T11:07:00;23.80;21.30
53776;DHT22;44276;49.534;6.378;2023-09-19T11:09:45;23.60;21.10
53776;DHT22;44276;49.534;6.378;2023-09-19T11:12:48;23.40;22.20
53776;DHT22;44276;49.534;6.378;2023-09-19T11:16:03;23.40;21.10
53776;DHT22;44276;49.534;6.378;2023-09-19T11:18:55;23.20;21.40
53776;DHT22;44276;49.534;6.378;2023-09-19T11:21:52;23.60;21.20
53776;DHT22;44276;49.534;6.378;2023-09-19T11:24:28;23.00;22.90
53776;DHT22;44276;49.534;6.378;2023-09-19T11:27:13;23.00;22.90
53776;DHT22;44276;49.534;6.378;2023-09-19T11:29:44;23.50;21.50
53776;DHT22;44276;49.534;6.378;2023-09-19T11:32:13;23.00;23.50
53776;DHT22;44276;49.534;6.378;2023-09-19T11:34:45;23.90;22.50
53776;DHT22;44276;49.534;6.378;2023-09-19T11:40:46;23.10;21.10
53776;DHT22;44276;49.534;6.378;2023-09-19T11:43:31;22.00;23.40
53776;DHT22;44276;49.534;6.378;2023-09-19T11:46:03;21.80;24.00
53776;DHT22;44276;49.534;6.378;2023-09-19T11:48:32;21.90;23.70
53776;DHT22;44276;49.534;6.378;2023-09-19T11:51:12;21.90;23.20
53776;DHT22;44276;49.534;6.378;2023-09-19T11:53:51;21.40;24.50
53776;DHT22;44276;49.534;6.378;2023-09-19T11:56:21;21.30;24.90
53776;DHT22;44276;49.534;6.378;2023-09-19T11:58:53;21.30;25.40
53776;DHT22;44276;49.534;6.378;2023-09-19T12:01:24;21.60;24.10
53776;DHT22;44276;49.534;6.378;2023-09-19T12:03:57;21.80;24.60
53776;DHT22;44276;49.534;6.378;2023-09-19T12:06:28;22.10;24.10
53776;DHT22;44276;49.534;6.378;2023-09-19T12:09:00;22.30;25.20
53776;DHT22;44276;49.534;6.378;2023-09-19T12:11:32;22.10;23.40
53776;DHT22;44276;49.534;6.378;2023-09-19T12:14:02;21.40;24.90
53776;DHT22;44276;49.534;6.378;2023-09-19T12:16:31;21.50;25.80
53776;DHT22;44276;49.534;6.378;2023-09-19T12:19:19;22.40;24.90
53776;DHT22;44276;49.534;6.378;2023-09-19T12:21:56;22.90;22.90
53776;DHT22;44276;49.534;6.378;2023-09-19T12:24:27;22.40;23.20
53776;DHT22;44276;49.534;6.378;2023-09-19T12:27:02;22.80;24.60
53776;DHT22;44276;49.534;6.378;2023-09-19T12:29:42;23.40;23.80
53776;DHT22;44276;49.534;6.378;2023-09-19T12:32:12;23.80;22.30
53776;DHT22;44276;49.534;6.378;2023-09-19T12:34:50;23.50;21.80
53776;DHT22;44276;49.534;6.378;2023-09-19T12:37:21;23.70;22.00
53776;DHT22;44276;49.534;6.378;2023-09-19T12:40:05;24.00;22.30
53776;DHT22;44276;49.534;6.378;2023-09-19T12:42:44;23.60;23.10
53776;DHT22;44276;49.534;6.378;2023-09-19T12:45:14;24.20;22.30
53776;DHT22;44276;49.534;6.378;2023-09-19T12:48:17;24.30;21.70
53776;DHT22;44276;49.534;6.378;2023-09-19T12:51:04;23.10;23.50
53776;DHT22;44276;49.534;6.378;2023-09-19T12:53:36;22.80;24.00
53776;DHT22;44276;49.534;6.378;2023-09-19T12:56:10;23.40;23.50
53776;DHT22;44276;49.534;6.378;2023-09-19T12:58:51;23.20;24.30
53776;DHT22;44276;49.534;6.378;2023-09-19T13:01:22;23.60;22.50
53776;DHT22;44276;49.534;6.378;2023-09-19T13:04:14;23.20;22.90
53776;DHT22;44276;49.534;6.378;2023-09-19T13:06:48;22.40;24.40
53776;DHT22;44276;49.534;6.378;2023-09-19T13:09:18;23.00;24.70
53776;DHT22;44276;49.534;6.378;2023-09-19T13:11:49;23.60;21.80
53776;DHT22;44276;49.534;6.378;2023-09-19T13:14:19;24.00;22.50
53776;DHT22;44276;49.534;6.378;2023-09-19T13:16:57;24.10;21.90
53776;DHT22;44276;49.534;6.378;2023-09-19T13:19:36;24.30;21.50
53776;DHT22;44276;49.534;6.378;2023-09-19T13:22:37;23.60;22.70
53776;DHT22;44276;49.534;6.378;2023-09-19T13:25:08;23.90;22.00
53776;DHT22;44276;49.534;6.378;2023-09-19T13:27:43;24.50;21.40
53776;DHT22;44276;49.534;6.378;2023-09-19T13:30:13;24.60;19.70
53776;DHT22;44276;49.534;6.378;2023-09-19T13:32:41;24.40;20.40
53776;DHT22;44276;49.534;6.378;2023-09-19T13:35:10;24.40;21.60
53776;DHT22;44276;49.534;6.378;2023-09-19T13:37:40;24.70;21.20
53776;DHT22;44276;49.534;6.378;2023-09-19T13:40:10;25.20;22.00
53776;DHT22;44276;49.534;6.378;2023-09-19T13:42:40;25.10;19.80
53776;DHT22;44276;49.534;6.378;2023-09-19T13:45:10;24.60;21.30
53776;DHT22;44276;49.534;6.378;2023-09-19T13:47:42;24.70;21.70
53776;DHT22;44276;49.534;6.378;2023-09-19T13:50:10;24.20;21.60
53776;DHT22;44276;49.534;6.378;2023-09-19T13:52:39;24.30;21.80
53776;DHT22;44276;49.534;6.378;2023-09-19T13:55:07;24.20;21.60
53776;DHT22;44276;49.534;6.378;2023-09-19T13:57:36;24.10;21.70
53776;DHT22;44276;49.534;6.378;2023-09-19T14:00:07;24.00;22.20
53776;DHT22;44276;49.534;6.378;2023-09-19T14:02:37;24.00;21.90
53776;DHT22;44276;49.534;6.378;2023-09-19T14:05:06;23.60;22.90
53776;DHT22;44276;49.534;6.378;2023-09-19T14:07:35;23.30;24.00
53776;DHT22;44276;49.534;6.378;2023-09-19T14:10:04;23.40;23.60
53776;DHT22;44276;49.534;6.378;2023-09-19T14:12:35;23.60;24.30
53776;DHT22;44276;49.534;6.378;2023-09-19T14:15:06;23.50;23.00
53776;DHT22;44276;49.534;6.378;2023-09-19T14:17:35;23.70;24.40
53776;DHT22;44276;49.534;6.378;2023-09-19T14:20:04;23.80;23.10
53776;DHT22;44276;49.534;6.378;2023-09-19T14:22:33;23.70;23.50
53776;DHT22;44276;49.534;6.378;2023-09-19T14:25:04;23.40;23.70
53776;DHT22;44276;49.534;6.378;2023-09-19T14:27:32;23.60;23.80
53776;DHT22;44276;49.534;6.378;2023-09-19T14:30:00;23.30;24.00
53776;DHT22;44276;49.534;6.378;2023-09-19T14:32:32;22.80;24.80
53776;DHT22;44276;49.534;6.378;2023-09-19T14:35:00;22.60;24.90
53776;DHT22;44276;49.534;6.378;2023-09-19T14:37:28;22.70;25.90
53776;DHT22;44276;49.534;6.378;2023-09-19T14:39:58;23.00;25.70
53776;DHT22;44276;49.534;6.378;2023-09-19T14:42:26;22.70;25.60
53776;DHT22;44276;49.534;6.378;2023-09-19T14:44:54;22.30;26.10
53776;DHT22;44276;49.534;6.378;2023-09-19T14:47:22;22.60;26.30
53776;DHT22;44276;49.534;6.378;2023-09-19T14:49:52;22.80;26.00
53776;DHT22;44276;49.534;6.378;2023-09-19T14:52:20;23.10;25.90
53776;DHT22;44276;49.534;6.378;2023-09-19T14:54:48;22.90;25.80
53776;DHT22;44276;49.534;6.378;2023-09-19T14:57:17;23.00;25.70
53776;DHT22;44276;49.534;6.378;2023-09-19T14:59:45;22.80;27.00
53776;DHT22;44276;49.534;6.378;2023-09-19T15:02:14;22.90;26.20
53776;DHT22;44276;49.534;6.378;2023-09-19T15:04:44;22.70;26.00
53776;DHT22;44276;49.534;6.378;2023-09-19T15:07:15;22.30;28.00
53776;DHT22;44276;49.534;6.378;2023-09-19T15:09:44;22.50;26.50
53776;DHT22;44276;49.534;6.378;2023-09-19T15:12:12;23.10;26.30
53776;DHT22;44276;49.534;6.378;2023-09-19T15:14:41;23.00;25.90
53776;DHT22;44276;49.534;6.378;2023-09-19T15:17:09;22.80;26.30
53776;DHT22;44276;49.534;6.378;2023-09-19T15:19:38;22.90;27.20
53776;DHT22;44276;49.534;6.378;2023-09-19T15:22:06;22.80;26.10
53776;DHT22;44276;49.534;6.378;2023-09-19T15:24:35;22.50;26.40
53776;DHT22;44276;49.534;6.378;2023-09-19T15:27:04;22.40;27.30
53776;DHT22;44276;49.534;6.378;2023-09-19T15:29:32;22.30;26.40
53776;DHT22;44276;49.534;6.378;2023-09-19T15:32:00;22.10;27.10
53776;DHT22;44276;49.534;6.378;2023-09-19T15:34:29;22.10;27.10
53776;DHT22;44276;49.534;6.378;2023-09-19T15:36:57;21.90;28.00
53776;DHT22;44276;49.534;6.378;2023-09-19T15:39:25;22.00;28.00
53776;DHT22;44276;49.534;6.378;2023-09-19T15:42:03;21.90;27.90
53776;DHT22;44276;49.534;6.378;2023-09-19T15:44:32;21.60;28.20
53776;DHT22;44276;49.534;6.378;2023-09-19T15:47:00;21.20;29.10
53776;DHT22;44276;49.534;6.378;2023-09-19T15:49:28;21.00;29.70
53776;DHT22;44276;49.534;6.378;2023-09-19T15:51:56;20.90;30.60
53776;DHT22;44276;49.534;6.378;2023-09-19T15:54:25;20.70;30.50
53776;DHT22;44276;49.534;6.378;2023-09-19T15:56:54;20.60;31.10
53776;DHT22;44276;49.534;6.378;2023-09-19T15:59:24;20.60;31.80
53776;DHT22;44276;49.534;6.378;2023-09-19T16:01:52;20.50;32.00
53776;DHT22;44276;49.534;6.378;2023-09-19T16:04:20;20.40;32.80
53776;DHT22;44276;49.534;6.378;2023-09-19T16:06:48;20.40;33.60